sensor_id;sensor_type;location;lat;lon;timestamp;P1;durP1;ratioP1;P2;durP2;ratioP2
908;SDS011;441;51.192;6.788;2023-03-31T00:01:04;8.10;;;7.90;;
908;SDS011;441;51.192;6.788;2023-03-31T00:03:31;8.00;;;7.80;;
908;SDS011;441;51.192;6.788;2023-03-31T00:06:03;8.50;;;8.13;;
908;SDS011;441;51.192;6.788;2023-03-31T00:08:30;8.23;;;7.97;;
908;SDS011;441;51.192;6.788;2023-03-31T00:11:01;8.20;;;7.90;;
908;SDS011;441;51.192;6.788;2023-03-31T00:13:31;9.40;;;9.10;;
908;SDS011;441;51.192;6.788;2023-03-31T00:15:59;8.60;;;8.20;;
908;SDS011;441;51.192;6.788;2023-03-31T00:18:27;9.10;;;8.80;;
908;SDS011;441;51.192;6.788;2023-03-31T00:20:58;8.40;;;8.10;;
908;SDS011;441;51.192;6.788;2023-03-31T00:23:31;7.83;;;7.63;;
908;SDS011;441;51.192;6.788;2023-03-31T00:25:58;7.70;;;7.50;;
908;SDS011;441;51.192;6.788;2023-03-31T00:28:26;8.10;;;7.90;;
908;SDS011;441;51.192;6.788;2023-03-31T00:30:53;8.67;;;8.27;;
908;SDS011;441;51.192;6.788;2023-03-31T00:33:26;8.50;;;7.90;;
908;SDS011;441;51.192;6.788;2023-03-31T00:35:53;8.27;;;8.07;;
908;SDS011;441;51.192;6.788;2023-03-31T00:38:20;8.97;;;8.67;;
908;SDS011;441;51.192;6.788;2023-03-31T00:40:47;8.90;;;8.60;;
908;SDS011;441;51.192;6.788;2023-03-31T00:43:20;8.37;;;8.17;;
908;SDS011;441;51.192;6.788;2023-03-31T00:45:54;8.53;;;8.30;;
908;SDS011;441;51.192;6.788;2023-03-31T00:48:27;8.50;;;8.30;;
908;SDS011;441;51.192;6.788;2023-03-31T00:50:55;8.10;;;7.90;;
908;SDS011;441;51.192;6.788;2023-03-31T00:53:25;8.83;;;8.53;;
908;SDS011;441;51.192;6.788;2023-03-31T00:55:55;8.47;;;8.23;;
908;SDS011;441;51.192;6.788;2023-03-31T00:58:28;8.67;;;8.37;;
908;SDS011;441;51.192;6.788;2023-03-31T01:00:57;8.00;;;7.80;;
908;SDS011;441;51.192;6.788;2023-03-31T01:03:26;8.00;;;7.90;;
908;SDS011;441;51.192;6.788;2023-03-31T01:05:55;7.80;;;7.60;;
908;SDS011;441;51.192;6.788;2023-03-31T01:08:26;8.10;;;7.90;;
908;SDS011;441;51.192;6.788;2023-03-31T01:10:54;9.00;;;8.67;;
908;SDS011;441;51.192;6.788;2023-03-31T01:13:23;8.80;;;8.50;;
908;SDS011;441;51.192;6.788;2023-03-31T01:15:52;8.20;;;8.00;;
908;SDS011;441;51.192;6.788;2023-03-31T01:18:19;8.90;;;8.50;;
908;SDS011;441;51.192;6.788;2023-03-31T01:20:51;8.60;;;8.40;;
908;SDS011;441;51.192;6.788;2023-03-31T01:23:57;8.17;;;7.97;;
908;SDS011;441;51.192;6.788;2023-03-31T01:26:55;7.87;;;7.67;;
908;SDS011;441;51.192;6.788;2023-03-31T01:32:49;8.40;;;7.90;;
908;SDS011;441;51.192;6.788;2023-03-31T01:35:41;8.30;;;7.97;;
908;SDS011;441;51.192;6.788;2023-03-31T01:41:32;7.80;;;7.60;;
908;SDS011;441;51.192;6.788;2023-03-31T01:44:12;9.10;;;8.70;;
908;SDS011;441;51.192;6.788;2023-03-31T01:46:45;8.40;;;8.10;;
908;SDS011;441;51.192;6.788;2023-03-31T01:49:19;8.40;;;8.20;;
908;SDS011;441;51.192;6.788;2023-03-31T01:51:56;8.30;;;8.10;;
908;SDS011;441;51.192;6.788;2023-03-31T01:54:29;8.67;;;8.40;;
908;SDS011;441;51.192;6.788;2023-03-31T01:57:06;8.00;;;7.80;;
908;SDS011;441;51.192;6.788;2023-03-31T01:59:41;8.10;;;7.80;;
908;SDS011;441;51.192;6.788;2023-03-31T02:02:15;9.00;;;8.70;;
908;SDS011;441;51.192;6.788;2023-03-31T02:04:46;8.80;;;8.60;;
908;SDS011;441;51.192;6.788;2023-03-31T02:07:16;9.00;;;8.80;;
908;SDS011;441;51.192;6.788;2023-03-31T02:09:48;9.83;;;9.53;;
908;SDS011;441;51.192;6.788;2023-03-31T02:12:20;9.03;;;8.83;;
908;SDS011;441;51.192;6.788;2023-03-31T02:14:51;9.20;;;8.90;;
908;SDS011;441;51.192;6.788;2023-03-31T02:17:21;8.90;;;8.67;;
908;SDS011;441;51.192;6.788;2023-03-31T02:19:55;8.70;;;8.50;;
908;SDS011;441;51.192;6.788;2023-03-31T02:22:24;8.73;;;8.53;;
908;SDS011;441;51.192;6.788;2023-03-31T02:24:54;8.57;;;8.37;;
908;SDS011;441;51.192;6.788;2023-03-31T02:27:24;8.23;;;8.03;;
908;SDS011;441;51.192;6.788;2023-03-31T02:29:53;8.67;;;8.47;;
908;SDS011;441;51.192;6.788;2023-03-31T02:32:21;9.10;;;8.90;;
908;SDS011;441;51.192;6.788;2023-03-31T02:34:50;9.23;;;8.93;;
908;SDS011;441;51.192;6.788;2023-03-31T02:37:17;9.83;;;9.60;;
908;SDS011;441;51.192;6.788;2023-03-31T02:39:45;9.47;;;9.20;;
908;SDS011;441;51.192;6.788;2023-03-31T02:42:14;9.40;;;9.10;;
908;SDS011;441;51.192;6.788;2023-03-31T02:44:43;9.57;;;9.27;;
908;SDS011;441;51.192;6.788;2023-03-31T02:47:11;9.93;;;9.67;;
908;SDS011;441;51.192;6.788;2023-03-31T02:49:40;9.03;;;8.83;;
908;SDS011;441;51.192;6.788;2023-03-31T02:52:22;9.60;;;9.30;;
908;SDS011;441;51.192;6.788;2023-03-31T02:55:14;9.30;;;9.10;;
908;SDS011;441;51.192;6.788;2023-03-31T02:57:59;8.57;;;8.37;;
908;SDS011;441;51.192;6.788;2023-03-31T03:03:51;9.83;;;9.33;;
908;SDS011;441;51.192;6.788;2023-03-31T03:06:31;8.07;;;7.87;;
908;SDS011;441;51.192;6.788;2023-03-31T03:09:09;7.53;;;7.33;;
908;SDS011;441;51.192;6.788;2023-03-31T03:11:44;8.10;;;7.83;;
908;SDS011;441;51.192;6.788;2023-03-31T03:14:17;7.93;;;7.60;;
908;SDS011;441;51.192;6.788;2023-03-31T03:16:54;8.17;;;7.97;;
908;SDS011;441;51.192;6.788;2023-03-31T03:19:25;8.67;;;8.17;;
908;SDS011;441;51.192;6.788;2023-03-31T03:21:52;7.90;;;7.70;;
908;SDS011;441;51.192;6.788;2023-03-31T03:24:19;8.07;;;7.77;;
908;SDS011;441;51.192;6.788;2023-03-31T03:26:46;8.93;;;8.57;;
908;SDS011;441;51.192;6.788;2023-03-31T03:29:13;8.30;;;8.00;;
908;SDS011;441;51.192;6.788;2023-03-31T03:31:40;9.60;;;9.10;;
908;SDS011;441;51.192;6.788;2023-03-31T03:34:09;9.77;;;9.20;;
908;SDS011;441;51.192;6.788;2023-03-31T03:36:36;10.60;;;9.93;;
908;SDS011;441;51.192;6.788;2023-03-31T03:39:04;8.90;;;8.60;;
908;SDS011;441;51.192;6.788;2023-03-31T03:41:32;8.50;;;8.20;;
908;SDS011;441;51.192;6.788;2023-03-31T03:43:59;7.80;;;7.60;;
908;SDS011;441;51.192;6.788;2023-03-31T03:46:26;8.90;;;8.70;;
908;SDS011;441;51.192;6.788;2023-03-31T03:48:53;9.47;;;9.07;;
908;SDS011;441;51.192;6.788;2023-03-31T03:51:22;8.97;;;8.57;;
908;SDS011;441;51.192;6.788;2023-03-31T03:53:49;9.67;;;9.27;;
908;SDS011;441;51.192;6.788;2023-03-31T03:56:16;9.50;;;9.00;;
908;SDS011;441;51.192;6.788;2023-03-31T03:58:43;9.40;;;9.00;;
908;SDS011;441;51.192;6.788;2023-03-31T04:01:10;9.13;;;8.83;;
908;SDS011;441;51.192;6.788;2023-03-31T04:03:36;9.13;;;8.73;;
908;SDS011;441;51.192;6.788;2023-03-31T04:06:03;8.83;;;8.50;;
908;SDS011;441;51.192;6.788;2023-03-31T04:08:32;9.77;;;9.37;;
908;SDS011;441;51.192;6.788;2023-03-31T04:10:59;8.87;;;8.67;;
908;SDS011;441;51.192;6.788;2023-03-31T04:13:26;8.20;;;8.00;;
908;SDS011;441;51.192;6.788;2023-03-31T04:15:53;10.00;;;9.30;;
908;SDS011;441;51.192;6.788;2023-03-31T04:18:20;9.10;;;8.60;;
908;SDS011;441;51.192;6.788;2023-03-31T04:20:48;9.67;;;9.30;;
908;SDS011;441;51.192;6.788;2023-03-31T04:23:19;8.90;;;8.60;;
908;SDS011;441;51.192;6.788;2023-03-31T04:25:49;9.53;;;9.23;;
908;SDS011;441;51.192;6.788;2023-03-31T04:28:16;8.73;;;8.53;;
908;SDS011;441;51.192;6.788;2023-03-31T04:30:44;9.13;;;8.83;;
908;SDS011;441;51.192;6.788;2023-03-31T04:33:11;9.30;;;9.00;;
908;SDS011;441;51.192;6.788;2023-03-31T04:35:39;8.70;;;8.47;;
908;SDS011;441;51.192;6.788;2023-03-31T04:38:17;8.87;;;8.57;;
908;SDS011;441;51.192;6.788;2023-03-31T04:40:45;9.30;;;9.00;;
908;SDS011;441;51.192;6.788;2023-03-31T04:43:15;7.80;;;7.60;;
908;SDS011;441;51.192;6.788;2023-03-31T04:45:43;8.60;;;8.30;;
908;SDS011;441;51.192;6.788;2023-03-31T04:48:10;8.93;;;8.43;;
908;SDS011;441;51.192;6.788;2023-03-31T04:50:37;7.70;;;7.50;;
908;SDS011;441;51.192;6.788;2023-03-31T04:53:04;8.20;;;7.90;;
908;SDS011;441;51.192;6.788;2023-03-31T04:55:31;8.20;;;7.90;;
908;SDS011;441;51.192;6.788;2023-03-31T04:57:59;8.03;;;7.83;;
908;SDS011;441;51.192;6.788;2023-03-31T05:00:27;8.30;;;8.10;;
908;SDS011;441;51.192;6.788;2023-03-31T05:02:54;9.30;;;8.80;;
908;SDS011;441;51.192;6.788;2023-03-31T05:05:21;8.63;;;8.33;;
908;SDS011;441;51.192;6.788;2023-03-31T05:07:48;8.93;;;8.63;;
908;SDS011;441;51.192;6.788;2023-03-31T05:10:15;9.70;;;9.23;;
908;SDS011;441;51.192;6.788;2023-03-31T05:12:42;7.70;;;7.37;;
908;SDS011;441;51.192;6.788;2023-03-31T05:15:09;9.30;;;9.10;;
908;SDS011;441;51.192;6.788;2023-03-31T05:17:38;9.23;;;8.57;;
908;SDS011;441;51.192;6.788;2023-03-31T05:20:05;9.37;;;9.07;;
908;SDS011;441;51.192;6.788;2023-03-31T05:22:34;9.53;;;9.23;;
908;SDS011;441;51.192;6.788;2023-03-31T05:25:01;10.40;;;9.80;;
908;SDS011;441;51.192;6.788;2023-03-31T05:27:30;9.07;;;8.87;;
908;SDS011;441;51.192;6.788;2023-03-31T05:29:57;9.00;;;8.50;;
908;SDS011;441;51.192;6.788;2023-03-31T05:32:24;8.80;;;8.43;;
908;SDS011;441;51.192;6.788;2023-03-31T05:34:53;8.87;;;8.67;;
908;SDS011;441;51.192;6.788;2023-03-31T05:37:21;9.97;;;9.60;;
908;SDS011;441;51.192;6.788;2023-03-31T05:39:50;10.10;;;9.70;;
908;SDS011;441;51.192;6.788;2023-03-31T05:42:17;9.68;;;8.77;;
908;SDS011;441;51.192;6.788;2023-03-31T05:44:45;14.00;;;13.60;;
908;SDS011;441;51.192;6.788;2023-03-31T05:47:12;14.20;;;13.60;;
908;SDS011;441;51.192;6.788;2023-03-31T05:49:39;13.67;;;13.37;;
908;SDS011;441;51.192;6.788;2023-03-31T05:52:08;13.83;;;13.43;;
908;SDS011;441;51.192;6.788;2023-03-31T05:54:35;13.73;;;13.23;;
908;SDS011;441;51.192;6.788;2023-03-31T05:57:02;14.80;;;14.30;;
908;SDS011;441;51.192;6.788;2023-03-31T05:59:30;15.83;;;15.33;;
908;SDS011;441;51.192;6.788;2023-03-31T06:01:59;15.23;;;14.63;;
908;SDS011;441;51.192;6.788;2023-03-31T06:04:26;16.27;;;15.77;;
908;SDS011;441;51.192;6.788;2023-03-31T06:06:53;17.53;;;17.03;;
908;SDS011;441;51.192;6.788;2023-03-31T06:09:23;15.20;;;14.80;;
908;SDS011;441;51.192;6.788;2023-03-31T06:11:50;14.93;;;14.50;;
908;SDS011;441;51.192;6.788;2023-03-31T06:14:17;15.30;;;14.70;;
908;SDS011;441;51.192;6.788;2023-03-31T06:16:44;14.10;;;13.60;;
908;SDS011;441;51.192;6.788;2023-03-31T06:19:12;15.03;;;14.63;;
908;SDS011;441;51.192;6.788;2023-03-31T06:21:39;14.00;;;13.60;;
908;SDS011;441;51.192;6.788;2023-03-31T06:24:07;14.00;;;13.60;;
908;SDS011;441;51.192;6.788;2023-03-31T06:26:35;14.67;;;14.10;;
908;SDS011;441;51.192;6.788;2023-03-31T06:29:02;14.70;;;14.30;;
908;SDS011;441;51.192;6.788;2023-03-31T06:31:29;14.40;;;13.57;;
908;SDS011;441;51.192;6.788;2023-03-31T06:33:56;14.10;;;13.60;;
908;SDS011;441;51.192;6.788;2023-03-31T06:36:23;15.50;;;15.10;;
908;SDS011;441;51.192;6.788;2023-03-31T06:38:50;14.70;;;14.37;;
908;SDS011;441;51.192;6.788;2023-03-31T06:41:18;15.07;;;14.57;;
908;SDS011;441;51.192;6.788;2023-03-31T06:43:47;13.93;;;13.32;;
908;SDS011;441;51.192;6.788;2023-03-31T06:46:14;15.90;;;15.37;;
908;SDS011;441;51.192;6.788;2023-03-31T06:48:41;15.00;;;14.60;;
908;SDS011;441;51.192;6.788;2023-03-31T06:51:08;15.47;;;14.97;;
908;SDS011;441;51.192;6.788;2023-03-31T06:53:35;15.63;;;15.03;;
908;SDS011;441;51.192;6.788;2023-03-31T06:56:03;16.10;;;15.20;;
908;SDS011;441;51.192;6.788;2023-03-31T06:58:31;15.80;;;15.30;;
908;SDS011;441;51.192;6.788;2023-03-31T07:01:00;15.60;;;15.10;;
908;SDS011;441;51.192;6.788;2023-03-31T07:03:28;15.77;;;15.17;;
908;SDS011;441;51.192;6.788;2023-03-31T07:05:55;14.93;;;14.53;;
908;SDS011;441;51.192;6.788;2023-03-31T07:08:22;15.10;;;14.60;;
908;SDS011;441;51.192;6.788;2023-03-31T07:10:52;15.00;;;14.50;;
908;SDS011;441;51.192;6.788;2023-03-31T07:13:21;16.23;;;15.63;;
908;SDS011;441;51.192;6.788;2023-03-31T07:15:49;14.80;;;14.40;;
908;SDS011;441;51.192;6.788;2023-03-31T07:18:18;15.50;;;15.10;;
908;SDS011;441;51.192;6.788;2023-03-31T07:20:46;15.70;;;15.20;;
908;SDS011;441;51.192;6.788;2023-03-31T07:23:14;15.87;;;15.37;;
908;SDS011;441;51.192;6.788;2023-03-31T07:25:41;17.10;;;16.60;;
908;SDS011;441;51.192;6.788;2023-03-31T07:28:09;16.30;;;15.70;;
908;SDS011;441;51.192;6.788;2023-03-31T07:30:37;15.40;;;14.97;;
908;SDS011;441;51.192;6.788;2023-03-31T07:33:05;15.57;;;15.07;;
908;SDS011;441;51.192;6.788;2023-03-31T07:35:33;15.77;;;15.07;;
908;SDS011;441;51.192;6.788;2023-03-31T07:38:03;15.53;;;15.03;;
908;SDS011;441;51.192;6.788;2023-03-31T07:40:30;16.20;;;15.80;;
908;SDS011;441;51.192;6.788;2023-03-31T07:42:57;15.50;;;15.10;;
908;SDS011;441;51.192;6.788;2023-03-31T07:45:25;14.63;;;14.23;;
908;SDS011;441;51.192;6.788;2023-03-31T07:47:52;15.50;;;15.10;;
908;SDS011;441;51.192;6.788;2023-03-31T07:50:20;16.60;;;16.20;;
908;SDS011;441;51.192;6.788;2023-03-31T07:52:50;15.50;;;15.00;;
908;SDS011;441;51.192;6.788;2023-03-31T07:55:17;15.20;;;14.80;;
908;SDS011;441;51.192;6.788;2023-03-31T07:57:45;15.80;;;15.33;;
908;SDS011;441;51.192;6.788;2023-03-31T08:00:13;15.10;;;14.70;;
908;SDS011;441;51.192;6.788;2023-03-31T08:02:41;16.50;;;15.63;;
908;SDS011;441;51.192;6.788;2023-03-31T08:05:08;14.40;;;14.00;;
908;SDS011;441;51.192;6.788;2023-03-31T08:07:37;15.90;;;15.40;;
908;SDS011;441;51.192;6.788;2023-03-31T08:10:08;15.87;;;15.30;;
908;SDS011;441;51.192;6.788;2023-03-31T08:12:36;15.93;;;15.43;;
908;SDS011;441;51.192;6.788;2023-03-31T08:15:04;16.63;;;16.23;;
908;SDS011;441;51.192;6.788;2023-03-31T08:17:32;17.10;;;16.60;;
908;SDS011;441;51.192;6.788;2023-03-31T08:19:59;16.83;;;16.03;;
908;SDS011;441;51.192;6.788;2023-03-31T08:22:25;16.93;;;16.33;;
908;SDS011;441;51.192;6.788;2023-03-31T08:24:52;16.40;;;15.90;;
908;SDS011;441;51.192;6.788;2023-03-31T08:27:21;15.73;;;15.23;;
908;SDS011;441;51.192;6.788;2023-03-31T08:29:48;16.70;;;15.80;;
908;SDS011;441;51.192;6.788;2023-03-31T08:32:15;15.50;;;15.00;;
908;SDS011;441;51.192;6.788;2023-03-31T08:34:42;16.67;;;16.17;;
908;SDS011;441;51.192;6.788;2023-03-31T08:37:10;16.07;;;15.67;;
908;SDS011;441;51.192;6.788;2023-03-31T08:39:36;15.63;;;15.23;;
908;SDS011;441;51.192;6.788;2023-03-31T08:42:04;15.90;;;15.50;;
908;SDS011;441;51.192;6.788;2023-03-31T08:44:35;15.73;;;15.33;;
908;SDS011;441;51.192;6.788;2023-03-31T08:47:06;16.07;;;15.57;;
908;SDS011;441;51.192;6.788;2023-03-31T08:49:38;15.90;;;15.50;;
908;SDS011;441;51.192;6.788;2023-03-31T08:52:10;15.68;;;15.18;;
908;SDS011;441;51.192;6.788;2023-03-31T08:54:41;15.60;;;15.00;;
908;SDS011;441;51.192;6.788;2023-03-31T08:57:11;15.10;;;14.70;;
908;SDS011;441;51.192;6.788;2023-03-31T08:59:45;16.47;;;15.87;;
908;SDS011;441;51.192;6.788;2023-03-31T09:02:16;14.80;;;14.40;;
908;SDS011;441;51.192;6.788;2023-03-31T09:07:56;15.90;;;15.37;;
908;SDS011;441;51.192;6.788;2023-03-31T09:10:38;15.57;;;15.07;;
908;SDS011;441;51.192;6.788;2023-03-31T09:13:17;15.57;;;15.17;;
908;SDS011;441;51.192;6.788;2023-03-31T09:16:13;15.90;;;15.43;;
908;SDS011;441;51.192;6.788;2023-03-31T09:18:41;16.37;;;15.97;;
908;SDS011;441;51.192;6.788;2023-03-31T09:21:12;16.13;;;15.63;;
908;SDS011;441;51.192;6.788;2023-03-31T09:23:46;16.27;;;15.80;;
908;SDS011;441;51.192;6.788;2023-03-31T09:26:20;16.17;;;15.77;;
908;SDS011;441;51.192;6.788;2023-03-31T09:28:50;16.70;;;16.20;;
908;SDS011;441;51.192;6.788;2023-03-31T09:31:21;15.93;;;15.40;;
908;SDS011;441;51.192;6.788;2023-03-31T09:33:50;16.33;;;15.33;;
908;SDS011;441;51.192;6.788;2023-03-31T09:36:20;15.83;;;15.20;;
908;SDS011;441;51.192;6.788;2023-03-31T09:38:47;15.70;;;15.20;;
908;SDS011;441;51.192;6.788;2023-03-31T09:41:15;15.53;;;15.13;;
908;SDS011;441;51.192;6.788;2023-03-31T09:43:43;16.93;;;16.33;;
908;SDS011;441;51.192;6.788;2023-03-31T09:46:14;16.10;;;15.70;;
908;SDS011;441;51.192;6.788;2023-03-31T09:48:49;15.90;;;15.50;;
908;SDS011;441;51.192;6.788;2023-03-31T09:51:22;17.23;;;16.73;;
908;SDS011;441;51.192;6.788;2023-03-31T09:53:54;17.20;;;16.70;;
908;SDS011;441;51.192;6.788;2023-03-31T09:56:33;16.23;;;15.73;;
908;SDS011;441;51.192;6.788;2023-03-31T09:59:12;16.60;;;16.10;;
908;SDS011;441;51.192;6.788;2023-03-31T10:01:42;14.45;;;13.95;;
908;SDS011;441;51.192;6.788;2023-03-31T10:04:15;15.53;;;15.13;;
908;SDS011;441;51.192;6.788;2023-03-31T10:06:46;16.50;;;15.90;;
908;SDS011;441;51.192;6.788;2023-03-31T10:09:14;15.70;;;15.20;;
908;SDS011;441;51.192;6.788;2023-03-31T10:11:51;14.73;;;14.33;;
908;SDS011;441;51.192;6.788;2023-03-31T10:14:23;16.00;;;15.50;;
908;SDS011;441;51.192;6.788;2023-03-31T10:16:53;17.40;;;16.80;;
908;SDS011;441;51.192;6.788;2023-03-31T10:19:22;16.37;;;15.77;;
908;SDS011;441;51.192;6.788;2023-03-31T10:21:54;16.37;;;15.97;;
908;SDS011;441;51.192;6.788;2023-03-31T10:24:23;17.50;;;17.00;;
908;SDS011;441;51.192;6.788;2023-03-31T10:26:52;16.20;;;15.60;;
908;SDS011;441;51.192;6.788;2023-03-31T10:29:22;18.00;;;17.50;;
908;SDS011;441;51.192;6.788;2023-03-31T10:31:53;14.95;;;14.45;;
908;SDS011;441;51.192;6.788;2023-03-31T10:34:20;17.40;;;16.80;;
908;SDS011;441;51.192;6.788;2023-03-31T10:36:50;17.70;;;17.20;;
908;SDS011;441;51.192;6.788;2023-03-31T10:39:18;16.83;;;16.33;;
908;SDS011;441;51.192;6.788;2023-03-31T10:41:48;16.80;;;16.20;;
908;SDS011;441;51.192;6.788;2023-03-31T10:44:29;17.47;;;16.90;;
908;SDS011;441;51.192;6.788;2023-03-31T10:47:02;14.20;;;13.80;;
908;SDS011;441;51.192;6.788;2023-03-31T10:49:36;17.00;;;16.50;;
908;SDS011;441;51.192;6.788;2023-03-31T10:52:10;18.00;;;17.40;;
908;SDS011;441;51.192;6.788;2023-03-31T10:54:46;17.87;;;17.37;;
908;SDS011;441;51.192;6.788;2023-03-31T10:57:14;17.63;;;17.13;;
908;SDS011;441;51.192;6.788;2023-03-31T10:59:46;15.20;;;14.70;;
908;SDS011;441;51.192;6.788;2023-03-31T11:02:41;15.50;;;14.90;;
908;SDS011;441;51.192;6.788;2023-03-31T11:05:34;17.13;;;16.63;;
908;SDS011;441;51.192;6.788;2023-03-31T11:08:12;16.53;;;16.03;;
908;SDS011;441;51.192;6.788;2023-03-31T11:10:59;16.20;;;15.70;;
908;SDS011;441;51.192;6.788;2023-03-31T11:13:37;17.17;;;16.67;;
908;SDS011;441;51.192;6.788;2023-03-31T11:16:15;17.37;;;16.87;;
908;SDS011;441;51.192;6.788;2023-03-31T11:18:53;17.20;;;16.70;;
908;SDS011;441;51.192;6.788;2023-03-31T11:21:31;18.13;;;17.50;;
908;SDS011;441;51.192;6.788;2023-03-31T11:24:07;18.53;;;17.73;;
908;SDS011;441;51.192;6.788;2023-03-31T11:26:47;19.73;;;18.50;;
908;SDS011;441;51.192;6.788;2023-03-31T11:29:26;18.30;;;17.80;;
908;SDS011;441;51.192;6.788;2023-03-31T11:32:04;18.07;;;17.30;;
908;SDS011;441;51.192;6.788;2023-03-31T11:34:45;15.35;;;14.85;;
908;SDS011;441;51.192;6.788;2023-03-31T11:37:34;16.80;;;16.30;;
908;SDS011;441;51.192;6.788;2023-03-31T11:40:20;16.10;;;15.60;;
908;SDS011;441;51.192;6.788;2023-03-31T11:43:03;16.23;;;15.73;;
908;SDS011;441;51.192;6.788;2023-03-31T11:45:36;16.10;;;15.43;;
908;SDS011;441;51.192;6.788;2023-03-31T11:48:09;16.67;;;16.07;;
908;SDS011;441;51.192;6.788;2023-03-31T11:50:41;15.90;;;15.50;;
908;SDS011;441;51.192;6.788;2023-03-31T11:53:14;17.90;;;17.23;;
908;SDS011;441;51.192;6.788;2023-03-31T11:55:45;18.47;;;17.43;;
908;SDS011;441;51.192;6.788;2023-03-31T11:58:16;16.90;;;16.40;;
908;SDS011;441;51.192;6.788;2023-03-31T12:00:49;17.90;;;17.40;;
908;SDS011;441;51.192;6.788;2023-03-31T12:03:21;14.52;;;14.13;;
908;SDS011;441;51.192;6.788;2023-03-31T12:05:52;16.97;;;16.47;;
908;SDS011;441;51.192;6.788;2023-03-31T12:08:25;16.30;;;15.80;;
908;SDS011;441;51.192;6.788;2023-03-31T12:10:59;16.73;;;16.23;;
908;SDS011;441;51.192;6.788;2023-03-31T12:13:32;17.77;;;17.27;;
908;SDS011;441;51.192;6.788;2023-03-31T12:16:08;17.80;;;17.20;;
908;SDS011;441;51.192;6.788;2023-03-31T12:18:38;18.57;;;17.63;;
908;SDS011;441;51.192;6.788;2023-03-31T12:21:09;18.20;;;17.70;;
908;SDS011;441;51.192;6.788;2023-03-31T12:23:39;15.45;;;14.95;;
908;SDS011;441;51.192;6.788;2023-03-31T12:26:11;16.77;;;16.27;;
908;SDS011;441;51.192;6.788;2023-03-31T12:28:49;17.43;;;16.93;;
908;SDS011;441;51.192;6.788;2023-03-31T12:31:22;17.33;;;16.73;;
908;SDS011;441;51.192;6.788;2023-03-31T12:33:52;16.70;;;16.20;;
908;SDS011;441;51.192;6.788;2023-03-31T12:36:27;16.97;;;16.57;;
908;SDS011;441;51.192;6.788;2023-03-31T12:39:08;17.53;;;17.03;;
908;SDS011;441;51.192;6.788;2023-03-31T12:41:46;17.30;;;16.73;;
908;SDS011;441;51.192;6.788;2023-03-31T12:44:28;16.33;;;15.93;;
908;SDS011;441;51.192;6.788;2023-03-31T12:47:10;17.50;;;17.00;;
908;SDS011;441;51.192;6.788;2023-03-31T12:49:54;17.00;;;16.60;;
908;SDS011;441;51.192;6.788;2023-03-31T12:52:36;16.60;;;16.10;;
908;SDS011;441;51.192;6.788;2023-03-31T12:55:25;16.90;;;16.50;;
908;SDS011;441;51.192;6.788;2023-03-31T13:01:02;16.33;;;15.73;;
908;SDS011;441;51.192;6.788;2023-03-31T13:12:12;15.60;;;15.20;;
908;SDS011;441;51.192;6.788;2023-03-31T13:14:41;17.10;;;16.53;;
908;SDS011;441;51.192;6.788;2023-03-31T13:17:11;15.80;;;15.30;;
908;SDS011;441;51.192;6.788;2023-03-31T13:19:45;16.50;;;16.00;;
908;SDS011;441;51.192;6.788;2023-03-31T13:22:26;16.70;;;16.20;;
908;SDS011;441;51.192;6.788;2023-03-31T13:28:09;17.40;;;16.70;;
908;SDS011;441;51.192;6.788;2023-03-31T13:30:45;17.07;;;16.40;;
908;SDS011;441;51.192;6.788;2023-03-31T13:33:14;16.30;;;15.70;;
908;SDS011;441;51.192;6.788;2023-03-31T13:35:46;15.30;;;14.90;;
908;SDS011;441;51.192;6.788;2023-03-31T13:38:18;16.75;;;16.25;;
908;SDS011;441;51.192;6.788;2023-03-31T13:40:54;14.17;;;13.67;;
908;SDS011;441;51.192;6.788;2023-03-31T13:46:41;18.67;;;18.17;;
908;SDS011;441;51.192;6.788;2023-03-31T13:52:19;16.37;;;15.80;;
908;SDS011;441;51.192;6.788;2023-03-31T13:55:22;17.73;;;17.23;;
908;SDS011;441;51.192;6.788;2023-03-31T13:58:17;17.80;;;17.00;;
908;SDS011;441;51.192;6.788;2023-03-31T14:01:03;17.63;;;17.13;;
908;SDS011;441;51.192;6.788;2023-03-31T14:04:00;18.57;;;18.07;;
908;SDS011;441;51.192;6.788;2023-03-31T14:06:40;15.80;;;15.40;;
908;SDS011;441;51.192;6.788;2023-03-31T14:09:13;18.60;;;18.10;;
908;SDS011;441;51.192;6.788;2023-03-31T14:11:48;17.97;;;17.37;;
908;SDS011;441;51.192;6.788;2023-03-31T14:14:16;17.33;;;16.83;;
908;SDS011;441;51.192;6.788;2023-03-31T14:16:46;17.47;;;16.97;;
908;SDS011;441;51.192;6.788;2023-03-31T14:22:06;18.37;;;17.77;;
908;SDS011;441;51.192;6.788;2023-03-31T14:24:43;18.70;;;18.17;;
908;SDS011;441;51.192;6.788;2023-03-31T14:27:19;18.10;;;17.50;;
908;SDS011;441;51.192;6.788;2023-03-31T14:29:57;18.87;;;18.30;;
908;SDS011;441;51.192;6.788;2023-03-31T14:32:33;18.57;;;17.87;;
908;SDS011;441;51.192;6.788;2023-03-31T14:35:11;17.50;;;16.90;;
908;SDS011;441;51.192;6.788;2023-03-31T14:37:54;16.63;;;16.13;;
908;SDS011;441;51.192;6.788;2023-03-31T14:40:22;17.43;;;16.97;;
908;SDS011;441;51.192;6.788;2023-03-31T14:42:50;17.00;;;16.50;;
908;SDS011;441;51.192;6.788;2023-03-31T14:45:19;18.37;;;17.67;;
908;SDS011;441;51.192;6.788;2023-03-31T14:47:53;18.27;;;17.70;;
908;SDS011;441;51.192;6.788;2023-03-31T14:50:22;17.70;;;17.10;;
908;SDS011;441;51.192;6.788;2023-03-31T14:52:55;17.93;;;17.20;;
908;SDS011;441;51.192;6.788;2023-03-31T14:55:23;16.57;;;16.07;;
908;SDS011;441;51.192;6.788;2023-03-31T14:57:52;17.77;;;16.97;;
908;SDS011;441;51.192;6.788;2023-03-31T15:00:23;17.63;;;16.83;;
908;SDS011;441;51.192;6.788;2023-03-31T15:02:55;16.47;;;15.97;;
908;SDS011;441;51.192;6.788;2023-03-31T15:05:24;16.73;;;16.10;;
908;SDS011;441;51.192;6.788;2023-03-31T15:07:57;17.73;;;16.93;;
908;SDS011;441;51.192;6.788;2023-03-31T15:10:25;17.27;;;16.67;;
908;SDS011;441;51.192;6.788;2023-03-31T15:12:58;17.80;;;17.20;;
908;SDS011;441;51.192;6.788;2023-03-31T15:15:27;17.20;;;16.70;;
908;SDS011;441;51.192;6.788;2023-03-31T15:17:55;18.00;;;17.10;;
908;SDS011;441;51.192;6.788;2023-03-31T15:20:27;16.87;;;16.37;;
908;SDS011;441;51.192;6.788;2023-03-31T15:22:56;16.50;;;16.00;;
908;SDS011;441;51.192;6.788;2023-03-31T15:25:24;17.73;;;17.17;;
908;SDS011;441;51.192;6.788;2023-03-31T15:27:55;17.20;;;16.50;;
908;SDS011;441;51.192;6.788;2023-03-31T15:30:25;17.30;;;16.60;;
908;SDS011;441;51.192;6.788;2023-03-31T15:32:55;18.40;;;17.80;;
908;SDS011;441;51.192;6.788;2023-03-31T15:35:24;18.77;;;17.90;;
908;SDS011;441;51.192;6.788;2023-03-31T15:37:55;17.83;;;17.17;;
908;SDS011;441;51.192;6.788;2023-03-31T15:40:24;17.77;;;17.17;;
908;SDS011;441;51.192;6.788;2023-03-31T15:42:53;17.53;;;17.00;;
908;SDS011;441;51.192;6.788;2023-03-31T15:48:15;16.57;;;16.07;;
908;SDS011;441;51.192;6.788;2023-03-31T15:50:53;16.67;;;16.07;;
908;SDS011;441;51.192;6.788;2023-03-31T15:53:28;16.90;;;16.40;;
908;SDS011;441;51.192;6.788;2023-03-31T15:56:00;16.30;;;15.70;;
908;SDS011;441;51.192;6.788;2023-03-31T16:01:19;17.87;;;17.17;;
908;SDS011;441;51.192;6.788;2023-03-31T16:03:48;16.73;;;16.23;;
908;SDS011;441;51.192;6.788;2023-03-31T16:06:19;16.43;;;15.83;;
908;SDS011;441;51.192;6.788;2023-03-31T16:08:58;17.43;;;16.83;;
908;SDS011;441;51.192;6.788;2023-03-31T16:11:32;16.20;;;15.60;;
908;SDS011;441;51.192;6.788;2023-03-31T16:14:05;16.20;;;15.70;;
908;SDS011;441;51.192;6.788;2023-03-31T16:16:35;17.00;;;16.50;;
908;SDS011;441;51.192;6.788;2023-03-31T16:19:04;16.53;;;16.03;;
908;SDS011;441;51.192;6.788;2023-03-31T16:21:36;17.10;;;16.30;;
908;SDS011;441;51.192;6.788;2023-03-31T16:24:06;15.50;;;14.90;;
908;SDS011;441;51.192;6.788;2023-03-31T16:26:33;16.87;;;16.17;;
908;SDS011;441;51.192;6.788;2023-03-31T16:29:02;18.67;;;18.07;;
908;SDS011;441;51.192;6.788;2023-03-31T16:31:31;18.00;;;17.23;;
908;SDS011;441;51.192;6.788;2023-03-31T16:34:00;16.90;;;16.33;;